createdAt,value
2022-12-29T00:00:56.730Z,6.80
2022-12-29T00:03:23.757Z,6.90
2022-12-29T00:05:56.497Z,6.90
2022-12-29T00:08:40.615Z,7.00
2022-12-29T00:11:23.852Z,7.00
2022-12-29T00:14:09.919Z,7.10
2022-12-29T00:16:38.203Z,7.00
2022-12-29T00:19:06.159Z,6.90
2022-12-29T00:21:52.684Z,6.90
2022-12-29T00:24:28.640Z,6.90
2022-12-29T00:27:16.755Z,6.90
2022-12-29T00:30:03.563Z,6.90
2022-12-29T00:32:49.232Z,6.80
2022-12-29T00:35:26.567Z,6.80
2022-12-29T00:38:13.382Z,6.70
2022-12-29T00:41:00.592Z,6.70
2022-12-29T00:43:46.304Z,6.70
2022-12-29T00:46:19.502Z,6.60
2022-12-29T00:49:05.392Z,6.50
2022-12-29T00:51:32.293Z,6.50
2022-12-29T00:53:59.262Z,6.60
2022-12-29T00:56:26.179Z,6.60
2022-12-29T00:58:53.134Z,6.60
2022-12-29T01:01:20.101Z,6.70
2022-12-29T01:03:47.183Z,6.60
2022-12-29T01:06:14.151Z,6.60
2022-12-29T01:08:41.210Z,6.60
2022-12-29T01:11:11.241Z,6.60
2022-12-29T01:13:43.531Z,6.60
2022-12-29T01:16:10.529Z,6.60
2022-12-29T01:18:38.077Z,6.60
2022-12-29T01:21:07.256Z,6.60
2022-12-29T01:23:34.165Z,6.50
2022-12-29T01:26:13.005Z,6.50
2022-12-29T01:28:41.221Z,6.40
2022-12-29T01:31:09.107Z,6.40
2022-12-29T01:33:36.446Z,6.40
2022-12-29T01:36:09.122Z,6.40
2022-12-29T01:38:38.044Z,6.30
2022-12-29T01:41:05.840Z,6.20
2022-12-29T01:43:44.905Z,6.20
2022-12-29T01:46:30.096Z,6.20
2022-12-29T01:49:09.061Z,6.20
2022-12-29T01:51:51.554Z,6.10
2022-12-29T01:54:20.280Z,6.10
2022-12-29T01:56:48.397Z,6.10
2022-12-29T01:59:22.289Z,6.10
2022-12-29T02:01:49.872Z,6.00
2022-12-29T02:04:17.021Z,6.00
2022-12-29T02:06:54.266Z,6.00
2022-12-29T02:09:22.002Z,6.00
2022-12-29T02:11:48.973Z,6.10
2022-12-29T02:14:16.279Z,6.00
2022-12-29T02:17:12.501Z,6.00
2022-12-29T02:20:28.630Z,6.10
2022-12-29T02:23:10.047Z,6.00
2022-12-29T02:26:17.348Z,6.00
2022-12-29T02:29:00.692Z,6.00
2022-12-29T02:31:59.189Z,6.10
2022-12-29T02:34:44.374Z,6.00
2022-12-29T02:37:19.899Z,6.00
2022-12-29T02:39:56.013Z,6.00
2022-12-29T02:42:42.895Z,6.00
2022-12-29T02:45:28.375Z,6.00
2022-12-29T02:48:09.615Z,6.00
2022-12-29T02:50:52.037Z,6.10
2022-12-29T02:53:43.456Z,6.20
2022-12-29T02:56:10.498Z,6.20
2022-12-29T02:58:37.480Z,6.10
2022-12-29T03:01:22.557Z,6.10
2022-12-29T03:03:52.588Z,6.20
2022-12-29T03:06:33.331Z,6.20
2022-12-29T03:09:20.781Z,6.20
2022-12-29T03:12:09.098Z,6.20
2022-12-29T03:15:13.348Z,6.20
2022-12-29T03:17:59.141Z,6.20
2022-12-29T03:20:33.589Z,6.20
2022-12-29T03:23:04.769Z,6.20
2022-12-29T03:25:34.907Z,6.20
2022-12-29T03:28:07.738Z,6.10
2022-12-29T03:30:35.830Z,6.00
2022-12-29T03:33:13.425Z,5.90
2022-12-29T03:35:44.832Z,5.80
2022-12-29T03:38:25.282Z,5.70
2022-12-29T03:40:56.850Z,5.70
2022-12-29T03:43:24.678Z,5.60
2022-12-29T03:45:51.705Z,5.60
2022-12-29T03:48:18.670Z,5.60
2022-12-29T03:50:45.638Z,5.60
2022-12-29T03:53:12.587Z,5.60
2022-12-29T03:55:40.012Z,5.60
2022-12-29T03:58:07.045Z,5.60
2022-12-29T04:00:33.979Z,5.60
2022-12-29T04:03:01.557Z,5.60
2022-12-29T04:05:28.685Z,5.50
2022-12-29T04:07:55.600Z,5.60
2022-12-29T04:10:22.521Z,5.50
2022-12-29T04:12:49.427Z,5.50
2022-12-29T04:15:16.503Z,5.50
2022-12-29T04:17:45.335Z,5.60
2022-12-29T04:20:31.041Z,5.50
2022-12-29T04:23:05.788Z,5.50
2022-12-29T04:25:32.972Z,5.50
2022-12-29T04:28:00.076Z,5.50
2022-12-29T04:30:26.997Z,5.50
2022-12-29T04:32:53.901Z,5.40
2022-12-29T04:35:20.775Z,5.40
2022-12-29T04:37:47.701Z,5.40
2022-12-29T04:40:14.691Z,5.40
2022-12-29T04:42:41.715Z,5.40
2022-12-29T04:45:09.249Z,5.30
2022-12-29T04:47:36.168Z,5.30
2022-12-29T04:50:03.527Z,5.20
2022-12-29T04:52:30.533Z,5.20
2022-12-29T04:54:57.547Z,5.20
2022-12-29T04:57:24.497Z,5.10
2022-12-29T04:59:51.408Z,5.10
2022-12-29T05:02:18.835Z,5.10
2022-12-29T05:04:46.887Z,5.10
2022-12-29T05:07:14.386Z,5.10
2022-12-29T05:09:41.586Z,5.10
2022-12-29T05:12:08.712Z,5.10
2022-12-29T05:14:35.620Z,5.10
2022-12-29T05:17:02.624Z,5.10
2022-12-29T05:19:29.512Z,5.20
2022-12-29T05:21:56.554Z,5.20
2022-12-29T05:24:23.626Z,5.10
2022-12-29T05:26:50.564Z,5.20
2022-12-29T05:29:17.541Z,5.20
2022-12-29T05:31:45.161Z,5.20
2022-12-29T05:34:15.137Z,5.20
2022-12-29T05:36:42.064Z,5.20
2022-12-29T05:39:09.124Z,5.20
2022-12-29T05:41:36.228Z,5.20
2022-12-29T05:44:03.333Z,5.20
2022-12-29T05:46:30.479Z,5.10
2022-12-29T05:48:57.418Z,5.10
2022-12-29T05:51:24.677Z,5.00
2022-12-29T05:53:51.681Z,5.00
2022-12-29T05:56:18.668Z,5.10
2022-12-29T05:58:45.541Z,5.10
2022-12-29T06:01:12.483Z,5.10
2022-12-29T06:03:44.508Z,5.20
2022-12-29T06:06:14.947Z,5.20
2022-12-29T06:08:41.807Z,5.20
2022-12-29T06:11:08.694Z,5.30
2022-12-29T06:13:35.609Z,5.30
2022-12-29T06:16:03.009Z,5.30
2022-12-29T06:18:30.090Z,5.30
2022-12-29T06:21:04.711Z,5.40
2022-12-29T06:23:32.301Z,5.40
2022-12-29T06:25:59.195Z,5.50
2022-12-29T06:28:26.172Z,5.50
2022-12-29T06:30:53.128Z,5.50
2022-12-29T06:33:20.237Z,5.50
2022-12-29T06:35:47.194Z,5.50
2022-12-29T06:38:14.214Z,5.50
2022-12-29T06:40:42.621Z,5.50
2022-12-29T06:43:09.623Z,5.40
2022-12-29T06:45:38.463Z,5.40
2022-12-29T06:48:05.451Z,5.50
2022-12-29T06:50:32.355Z,5.50
2022-12-29T06:52:59.407Z,5.40
2022-12-29T08:54:33.282Z,5.10
2022-12-29T08:57:00.330Z,5.00
2022-12-29T08:59:27.365Z,5.00
2022-12-29T09:01:54.479Z,4.90
2022-12-29T09:04:21.504Z,4.90
2022-12-29T09:06:48.597Z,4.90
2022-12-29T09:09:15.627Z,4.90
2022-12-29T09:11:43.107Z,4.80
2022-12-29T09:14:10.103Z,4.80
2022-12-29T09:16:37.382Z,4.70
2022-12-29T09:19:04.751Z,4.70
2022-12-29T09:21:31.864Z,4.60
2022-12-29T09:23:58.745Z,4.60
2022-12-29T09:26:25.646Z,4.50
2022-12-29T09:28:52.664Z,4.60
2022-12-29T09:31:19.589Z,4.60
2022-12-29T09:33:46.546Z,4.50
2022-12-29T09:36:13.489Z,4.60
2022-12-29T09:38:40.350Z,4.70
2022-12-29T09:41:21.033Z,4.70
2022-12-29T09:44:13.343Z,4.80
2022-12-29T09:46:45.102Z,4.90
2022-12-29T09:49:17.589Z,5.00
2022-12-29T09:51:49.557Z,5.00
2022-12-29T09:54:33.676Z,5.00
2022-12-29T09:57:00.734Z,5.00
2022-12-29T09:59:50.433Z,5.00
2022-12-29T10:03:07.253Z,5.00
2022-12-29T10:05:53.077Z,4.80
2022-12-29T10:08:32.173Z,4.80
2022-12-29T10:11:34.619Z,4.80
2022-12-29T10:14:10.934Z,4.80
2022-12-29T10:16:53.494Z,4.90
2022-12-29T10:19:38.723Z,4.80
2022-12-29T10:22:33.485Z,4.70
2022-12-29T10:25:04.880Z,4.60
2022-12-29T10:27:35.992Z,4.60
2022-12-29T10:30:04.498Z,4.60
2022-12-29T10:32:49.040Z,4.60
2022-12-29T10:35:23.987Z,4.70
2022-12-29T10:38:04.523Z,4.80
2022-12-29T10:41:08.766Z,5.10
2022-12-29T10:43:48.834Z,5.30
2022-12-29T10:46:24.318Z,5.30
2022-12-29T10:48:51.444Z,5.40
2022-12-29T10:51:37.891Z,5.50
2022-12-29T10:54:27.744Z,5.50
2022-12-29T10:56:54.645Z,5.60
2022-12-29T10:59:31.521Z,5.70
2022-12-29T11:02:04.403Z,5.70
2022-12-29T11:04:40.336Z,5.80
2022-12-29T11:07:13.272Z,5.90
2022-12-29T11:09:43.774Z,5.90
2022-12-29T11:12:29.477Z,6.00
2022-12-29T11:15:17.321Z,6.00
2022-12-29T11:17:48.471Z,6.10
2022-12-29T11:20:40.027Z,6.10
2022-12-29T11:23:36.511Z,6.10
2022-12-29T11:26:22.394Z,6.10
2022-12-29T11:29:17.058Z,6.10
2022-12-29T11:31:47.082Z,6.10
2022-12-29T11:34:26.549Z,6.10
2022-12-29T11:37:01.249Z,6.10
2022-12-29T11:39:35.373Z,6.10
2022-12-29T11:42:04.196Z,6.10
2022-12-29T11:44:39.091Z,6.10
2022-12-29T11:47:09.191Z,6.10
2022-12-29T11:49:36.186Z,6.00
2022-12-29T11:52:03.197Z,5.90
2022-12-29T11:54:38.206Z,6.00
2022-12-29T11:57:16.629Z,6.00
2022-12-29T12:00:36.657Z,6.00
2022-12-29T12:03:34.137Z,6.00
2022-12-29T12:06:07.405Z,6.00
2022-12-29T12:08:39.962Z,6.00
2022-12-29T12:11:17.972Z,6.00
2022-12-29T12:13:49.009Z,6.10
2022-12-29T12:16:21.985Z,6.10
2022-12-29T12:18:56.329Z,6.10
2022-12-29T12:21:29.039Z,6.20
2022-12-29T12:24:16.286Z,6.10
2022-12-29T12:27:00.987Z,6.10
2022-12-29T12:29:44.486Z,6.20
2022-12-29T12:32:14.383Z,6.20
2022-12-29T12:34:44.447Z,6.20
2022-12-29T12:37:15.003Z,6.20
2022-12-29T12:40:03.436Z,6.10
2022-12-29T12:42:53.637Z,6.10
2022-12-29T12:45:52.436Z,6.10
2022-12-29T12:48:43.679Z,6.10
2022-12-29T12:51:29.387Z,6.10
2022-12-29T12:54:11.084Z,6.10
2022-12-29T12:57:16.161Z,6.00
2022-12-29T13:00:06.523Z,5.90
2022-12-29T13:02:51.932Z,5.90
2022-12-29T13:05:40.778Z,5.90
2022-12-29T13:08:29.484Z,5.90
2022-12-29T13:11:25.389Z,5.70
2022-12-29T13:14:30.227Z,5.70
2022-12-29T13:17:06.262Z,5.70
2022-12-29T13:19:41.136Z,5.60
2022-12-29T13:22:18.327Z,5.60
2022-12-29T13:25:17.433Z,5.60
2022-12-29T13:27:53.345Z,5.70
2022-12-29T13:30:21.896Z,5.70
2022-12-29T13:33:16.270Z,5.70
2022-12-29T13:35:58.399Z,5.60
2022-12-29T13:39:09.421Z,5.70
2022-12-29T13:41:42.015Z,5.60
2022-12-29T13:44:17.273Z,5.70
2022-12-29T13:47:00.705Z,5.70
2022-12-29T13:49:29.202Z,5.70
2022-12-29T13:52:26.058Z,5.70
2022-12-29T13:55:08.225Z,5.70
2022-12-29T13:58:04.981Z,5.80
2022-12-29T14:00:52.122Z,5.80
2022-12-29T14:03:43.388Z,5.80
2022-12-29T14:06:20.317Z,5.80
2022-12-29T14:08:49.174Z,5.80
2022-12-29T14:11:18.577Z,5.80
2022-12-29T14:13:48.125Z,5.80
2022-12-29T14:16:35.895Z,5.90
2022-12-29T14:19:30.580Z,5.90
2022-12-29T14:22:06.318Z,5.90
2022-12-29T14:24:36.306Z,6.00
2022-12-29T14:27:12.423Z,6.00
2022-12-29T14:29:39.172Z,5.90
2022-12-29T14:32:27.803Z,5.90
2022-12-29T14:34:55.948Z,5.80
2022-12-29T14:37:29.303Z,5.80
2022-12-29T14:40:14.835Z,5.80
2022-12-29T14:42:42.973Z,5.80
2022-12-29T14:45:15.834Z,5.80
2022-12-29T14:47:44.255Z,5.70
2022-12-29T14:50:25.888Z,5.80
2022-12-29T14:53:00.326Z,5.80
2022-12-29T14:55:40.520Z,5.80
2022-12-29T14:58:33.445Z,5.70
2022-12-29T15:01:01.565Z,5.60
2022-12-29T15:03:37.412Z,5.50
2022-12-29T15:06:12.745Z,5.60
2022-12-29T15:08:53.693Z,5.50
2022-12-29T15:11:42.208Z,5.50
2022-12-29T15:14:40.587Z,5.40
2022-12-29T15:17:25.085Z,5.30
2022-12-29T15:19:52.294Z,5.30
2022-12-29T15:22:19.199Z,5.40
2022-12-29T15:24:46.632Z,5.40
2022-12-29T15:27:20.177Z,5.40
2022-12-29T15:29:47.647Z,5.40
2022-12-29T15:32:17.628Z,5.50
2022-12-29T15:34:46.128Z,5.40
2022-12-29T15:37:21.693Z,5.40
2022-12-29T15:39:49.444Z,5.40
2022-12-29T15:42:22.517Z,5.30
2022-12-29T15:44:57.822Z,5.40
2022-12-29T15:47:31.411Z,5.50
2022-12-29T15:50:06.491Z,5.50
2022-12-29T15:52:34.731Z,5.50
2022-12-29T15:55:03.345Z,5.60
2022-12-29T15:57:37.133Z,5.60
2022-12-29T16:00:22.112Z,5.60
2022-12-29T16:02:50.042Z,5.70
2022-12-29T16:05:19.598Z,5.60
2022-12-29T16:08:00.913Z,5.60
2022-12-29T16:10:31.498Z,5.50
2022-12-29T16:13:21.359Z,5.60
2022-12-29T16:15:49.860Z,5.60
2022-12-29T16:18:28.757Z,5.50
2022-12-29T16:20:57.576Z,5.50
2022-12-29T16:23:28.055Z,5.50
2022-12-29T16:25:58.830Z,5.60
2022-12-29T16:28:37.315Z,5.60
2022-12-29T16:31:07.059Z,5.50
2022-12-29T16:33:41.148Z,5.60
2022-12-29T16:36:33.970Z,5.60
2022-12-29T16:39:27.898Z,5.60
2022-12-29T16:41:56.039Z,5.60
2022-12-29T16:44:32.452Z,5.60
2022-12-29T16:47:20.254Z,5.70
2022-12-29T16:49:53.017Z,5.60
2022-12-29T16:52:35.642Z,5.70
2022-12-29T16:55:03.026Z,5.60
2022-12-29T16:57:34.606Z,5.60
2022-12-29T17:00:04.831Z,5.70
2022-12-29T17:02:33.563Z,5.60
2022-12-29T17:05:00.700Z,5.70
2022-12-29T17:18:21.326Z,5.30
2022-12-29T17:20:49.352Z,5.20
2022-12-29T17:23:22.789Z,5.00
2022-12-29T17:25:55.698Z,5.00
2022-12-29T17:31:07.634Z,4.80
2022-12-29T17:33:38.767Z,4.80
2022-12-29T17:36:30.805Z,4.70
2022-12-29T17:39:22.064Z,4.60
2022-12-29T17:41:53.462Z,4.50
2022-12-29T17:44:54.285Z,4.40
2022-12-29T17:50:03.793Z,4.30
2022-12-29T18:03:28.510Z,4.00
2022-12-29T18:05:57.159Z,3.90
2022-12-29T18:08:25.003Z,3.90
2022-12-29T18:10:54.337Z,3.80
2022-12-29T18:13:26.390Z,3.80
2022-12-29T18:15:55.675Z,3.80
2022-12-29T18:18:27.067Z,3.80
2022-12-29T18:20:59.105Z,3.80
2022-12-29T18:23:44.584Z,3.80
2022-12-29T18:26:22.265Z,3.80
2022-12-29T18:28:54.395Z,3.70
2022-12-29T18:31:22.768Z,3.70
2022-12-29T18:33:51.481Z,3.70
2022-12-29T18:36:19.240Z,3.70
2022-12-29T18:38:46.585Z,3.70
2022-12-29T18:41:22.123Z,3.70
2022-12-29T18:43:49.157Z,3.60
2022-12-29T18:46:22.419Z,3.60
2022-12-29T18:49:01.283Z,3.50
2022-12-29T18:51:28.217Z,3.50
2022-12-29T18:53:55.264Z,3.50
2022-12-29T18:56:23.282Z,3.40
2022-12-29T18:58:51.081Z,3.40
2022-12-29T19:01:28.639Z,3.30
2022-12-29T19:03:55.791Z,3.30
2022-12-29T19:06:22.944Z,3.20
2022-12-29T19:08:53.560Z,3.20
2022-12-29T19:11:20.637Z,3.20
2022-12-29T19:13:47.815Z,3.30
2022-12-29T19:16:20.341Z,3.30
2022-12-29T19:18:53.616Z,3.20
2022-12-29T19:21:30.986Z,3.20
2022-12-29T19:23:57.920Z,3.20
2022-12-29T19:26:31.526Z,3.20
2022-12-29T19:28:59.656Z,3.20
2022-12-29T19:31:26.878Z,3.30
2022-12-29T19:33:54.408Z,3.40
2022-12-29T19:36:22.647Z,3.50
2022-12-29T19:38:50.204Z,3.50
2022-12-29T19:44:14.277Z,3.70
2022-12-29T19:46:42.311Z,3.80
2022-12-29T19:49:09.437Z,3.90
2022-12-29T19:51:36.606Z,3.90
2022-12-29T19:54:03.655Z,3.90
2022-12-29T19:56:31.464Z,3.90
2022-12-29T19:58:58.415Z,3.90
2022-12-29T20:01:25.879Z,3.90
2022-12-29T20:03:53.028Z,3.80
2022-12-29T20:09:31.495Z,3.60
2022-12-29T20:11:58.381Z,3.50
2022-12-29T20:14:25.364Z,3.50
2022-12-29T20:17:09.951Z,3.50
2022-12-29T20:19:39.089Z,3.40
2022-12-29T20:22:08.034Z,3.40
2022-12-29T20:24:36.255Z,3.50
2022-12-29T20:27:04.490Z,3.40
2022-12-29T20:29:39.621Z,3.40
2022-12-29T20:32:09.123Z,3.30
2022-12-29T20:34:36.970Z,3.20
2022-12-29T20:37:04.086Z,3.00
2022-12-29T20:39:34.316Z,3.00
2022-12-29T20:42:01.551Z,2.90
2022-12-29T20:44:30.388Z,2.90
2022-12-29T20:46:57.369Z,2.80
2022-12-29T20:49:24.492Z,2.90
2022-12-29T20:52:07.844Z,2.90
2022-12-29T20:54:39.134Z,2.90
2022-12-29T20:57:07.486Z,3.00
2022-12-29T20:59:34.485Z,3.00
2022-12-29T21:02:01.602Z,3.00
2022-12-29T21:04:43.734Z,3.00
2022-12-29T21:07:19.894Z,3.00
2022-12-29T21:09:47.364Z,3.10
2022-12-29T21:12:15.061Z,3.20
2022-12-29T21:14:45.601Z,3.30
2022-12-29T21:17:13.053Z,3.30
2022-12-29T21:19:39.950Z,3.30
2022-12-29T21:22:06.988Z,3.30
2022-12-29T21:24:34.053Z,3.30
2022-12-29T21:27:01.043Z,3.20
2022-12-29T21:29:27.945Z,3.20
2022-12-29T21:31:55.002Z,3.20
2022-12-29T21:34:22.031Z,3.10
2022-12-29T21:36:49.223Z,3.10
2022-12-29T21:39:16.558Z,3.00
2022-12-29T21:41:43.491Z,3.00
2022-12-29T21:44:28.831Z,3.00
2022-12-29T21:46:55.775Z,3.10
2022-12-29T21:49:25.277Z,3.20
2022-12-29T21:51:56.008Z,3.30
2022-12-29T21:54:44.376Z,3.40
2022-12-29T21:57:17.928Z,3.30
2022-12-29T22:00:06.487Z,3.20
2022-12-29T22:02:52.973Z,3.20
2022-12-29T22:05:38.630Z,3.30
2022-12-29T22:08:24.091Z,3.20
2022-12-29T22:11:09.723Z,3.20
2022-12-29T22:13:39.044Z,3.10
2022-12-29T22:16:12.968Z,3.00
2022-12-29T22:18:40.072Z,3.00
2022-12-29T22:21:08.970Z,2.90
2022-12-29T22:23:38.144Z,2.80
2022-12-29T22:26:06.585Z,2.70
2022-12-29T22:28:39.879Z,2.80
2022-12-29T22:31:18.709Z,2.70
2022-12-29T22:33:45.978Z,2.60
2022-12-29T22:36:12.960Z,2.50
2022-12-29T22:38:39.963Z,2.40
2022-12-29T22:41:06.852Z,2.40
2022-12-29T22:43:33.795Z,2.30
2022-12-29T22:46:05.342Z,2.20
2022-12-29T22:48:33.621Z,2.20
2022-12-29T22:51:00.826Z,2.30
2022-12-29T22:53:28.204Z,2.50
2022-12-29T22:56:06.191Z,2.60
2022-12-29T22:58:33.365Z,2.70
2022-12-29T23:01:00.539Z,2.80
2022-12-29T23:03:27.796Z,2.90
2022-12-29T23:06:06.856Z,3.00
2022-12-29T23:08:36.465Z,3.00
2022-12-29T23:11:04.969Z,3.10
2022-12-29T23:13:32.715Z,3.10
2022-12-29T23:16:00.288Z,3.10
2022-12-29T23:18:27.749Z,3.10
2022-12-29T23:20:54.758Z,3.00
2022-12-29T23:23:46.420Z,3.10
2022-12-29T23:26:16.342Z,3.10
2022-12-29T23:28:43.319Z,3.00
2022-12-29T23:31:10.596Z,3.00
2022-12-29T23:33:37.799Z,2.90
2022-12-29T23:36:05.383Z,2.90
2022-12-29T23:38:32.311Z,2.90
2022-12-29T23:40:59.304Z,2.90
2022-12-29T23:43:26.375Z,2.80
2022-12-29T23:45:53.352Z,2.80
2022-12-29T23:48:20.325Z,2.60
2022-12-29T23:50:47.314Z,2.60
2022-12-29T23:53:14.343Z,2.60
2022-12-29T23:55:43.558Z,2.60
2022-12-29T23:58:11.085Z,2.60
